Time;durP1;ratioP1;P1;durP2;ratioP2;P2;SDS_P1;SDS_P2;PMS_P1;PMS_P2;Temp;Humidity;BMP_temperature;BMP_pressure;BME280_temperature;BME280_humidity;BME280_pressure;Samples;Min_cycle;Max_cycle;Signal;HPM_P1;HPM_P2
2023/08/19 00:00:15;;;;;;;25.35;19.77;;;20.30;99.90;;;;;;5006952;28;20050;-56
2023/08/19 00:02:42;;;;;;;24.23;21.63;;;20.30;99.90;;;;;;5007013;28;20109;-56
2023/08/19 00:05:09;;;;;;;23.02;20.20;;;20.30;99.90;;;;;;5006474;28;20547;-56
2023/08/19 00:07:35;;;;;;;26.45;22.88;;;20.30;99.90;;;;;;5007126;28;20218;-56
2023/08/19 00:10:04;;;;;;;24.30;19.60;;;20.30;99.90;;;;;;5006999;28;20168;-56
2023/08/19 00:12:30;;;;;;;24.60;19.48;;;20.20;99.90;;;;;;5007295;28;20161;-56
2023/08/19 00:14:56;;;;;;;22.95;19.13;;;20.20;99.90;;;;;;5006950;28;20567;-56
2023/08/19 00:17:23;;;;;;;19.75;17.65;;;20.20;99.90;;;;;;5006588;28;20034;-56
2023/08/19 00:19:49;;;;;;;21.45;18.70;;;20.10;99.90;;;;;;5007000;28;20026;-56
2023/08/19 00:22:14;;;;;;;20.85;18.67;;;20.10;99.90;;;;;;5006776;28;20037;-56
2023/08/19 00:24:40;;;;;;;19.50;17.33;;;20.00;99.90;;;;;;5006166;28;20057;-57
2023/08/19 00:27:05;;;;;;;19.92;17.92;;;19.90;99.90;;;;;;4996192;28;20441;-56
2023/08/19 00:29:31;;;;;;;19.38;17.33;;;19.90;99.90;;;;;;4995341;28;20019;-56
2023/08/19 00:31:56;;;;;;;20.50;18.13;;;19.90;99.90;;;;;;4993478;28;20050;-56
2023/08/19 00:34:22;;;;;;;21.52;19.25;;;19.90;99.90;;;;;;4993968;28;20030;-56
2023/08/19 00:36:48;;;;;;;21.30;18.63;;;19.80;99.90;;;;;;4995265;28;20095;-56
2023/08/19 00:39:14;;;;;;;19.83;17.73;;;19.80;99.90;;;;;;4995724;28;20234;-56
2023/08/19 00:41:39;;;;;;;22.85;19.75;;;19.80;99.90;;;;;;4996773;28;20037;-56
2023/08/19 00:44:06;;;;;;;20.45;17.27;;;19.80;99.90;;;;;;4995474;28;20044;-55
2023/08/19 00:46:32;;;;;;;22.35;18.23;;;19.70;99.90;;;;;;5002599;28;20122;-56
2023/08/19 00:48:58;;;;;;;23.80;19.52;;;19.70;99.90;;;;;;4997186;28;20386;-56
2023/08/19 00:51:24;;;;;;;21.88;19.50;;;19.70;99.90;;;;;;5006740;28;20029;-56
2023/08/19 00:53:50;;;;;;;23.98;20.05;;;19.70;99.90;;;;;;5006320;28;20038;-56
2023/08/19 00:56:15;;;;;;;22.85;19.77;;;19.70;99.90;;;;;;5009554;28;20112;-56
2023/08/19 00:58:41;;;;;;;19.75;17.75;;;19.70;99.90;;;;;;5009716;28;20022;-55
2023/08/19 01:01:08;;;;;;;22.88;20.48;;;19.70;99.90;;;;;;5009794;28;20037;-56
2023/08/19 01:03:34;;;;;;;31.50;25.30;;;19.80;99.90;;;;;;5004785;28;20076;-56
2023/08/19 01:06:51;;;;;;;30.83;26.17;;;19.80;99.90;;;;;;5006555;28;20022;-57
2023/08/19 01:09:47;;;;;;;28.65;23.33;;;19.80;99.90;;;;;;4995463;28;20048;-56
2023/08/19 01:12:38;;;;;;;25.33;22.63;;;19.80;99.90;;;;;;5009637;28;20032;-57
2023/08/19 01:15:27;;;;;;;24.65;21.90;;;19.90;99.90;;;;;;5009235;28;20081;-57
2023/08/19 01:17:54;;;;;;;25.25;22.45;;;19.90;99.90;;;;;;5009515;28;20353;-57
2023/08/19 01:20:21;;;;;;;23.20;20.73;;;19.80;99.90;;;;;;5009455;28;20018;-57
2023/08/19 01:23:27;;;;;;;26.67;22.10;;;19.80;99.90;;;;;;5001417;28;20479;-57
2023/08/19 01:25:53;;;;;;;31.95;26.20;;;19.80;99.90;;;;;;5001156;28;20411;-55
2023/08/19 01:28:21;;;;;;;29.52;25.05;;;19.80;99.90;;;;;;5000907;28;20474;-57
2023/08/19 01:30:47;;;;;;;26.83;22.88;;;19.80;99.90;;;;;;5009430;28;20033;-57
2023/08/19 01:33:14;;;;;;;27.98;24.55;;;19.80;99.90;;;;;;5009185;28;20332;-57
2023/08/19 01:36:01;;;;;;;30.67;26.02;;;19.80;99.90;;;;;;5009383;28;20030;-57
2023/08/19 01:38:55;;;;;;;27.92;24.85;;;19.80;99.90;;;;;;5009475;28;20056;-56
2023/08/19 01:41:22;;;;;;;25.13;22.00;;;19.80;99.90;;;;;;5009231;28;20014;-56
2023/08/19 01:43:49;;;;;;;32.95;24.33;;;19.80;99.90;;;;;;5009147;28;20022;-57
2023/08/19 01:46:15;;;;;;;30.27;24.42;;;19.70;99.90;;;;;;5008853;28;20029;-57
2023/08/19 01:48:41;;;;;;;27.80;24.80;;;19.70;99.90;;;;;;5009167;28;20036;-57
2023/08/19 01:51:06;;;;;;;27.70;23.63;;;19.70;99.90;;;;;;5009192;28;20030;-56
2023/08/19 01:53:32;;;;;;;25.42;21.80;;;19.60;99.90;;;;;;4998588;28;20079;-56
2023/08/19 01:55:58;;;;;;;28.38;25.27;;;19.60;99.90;;;;;;5005503;28;20033;-57
2023/08/19 01:58:23;;;;;;;28.13;25.13;;;19.60;99.90;;;;;;5009188;28;20022;-56
2023/08/19 02:00:49;;;;;;;29.38;26.10;;;19.60;99.90;;;;;;5007821;28;20417;-56
2023/08/19 02:03:14;;;;;;;28.00;24.60;;;19.60;99.90;;;;;;5008825;28;20021;-56
2023/08/19 02:05:40;;;;;;;27.92;24.30;;;19.60;99.90;;;;;;5008728;28;20453;-56
2023/08/19 02:08:05;;;;;;;29.85;25.25;;;19.60;99.90;;;;;;5008075;28;20029;-56
2023/08/19 02:10:32;;;;;;;27.50;24.30;;;19.60;99.90;;;;;;5002078;28;20071;-55
2023/08/19 02:12:58;;;;;;;27.35;23.10;;;19.60;99.90;;;;;;5007703;28;20060;-56
2023/08/19 02:15:23;;;;;;;33.00;27.92;;;19.50;99.90;;;;;;5008529;28;20053;-55
2023/08/19 02:17:49;;;;;;;27.73;24.75;;;19.50;99.90;;;;;;5008586;28;20083;-57
2023/08/19 02:20:14;;;;;;;29.73;24.90;;;19.50;99.90;;;;;;5008889;28;20058;-55
2023/08/19 02:22:40;;;;;;;41.55;29.55;;;19.60;99.90;;;;;;5008696;28;20097;-55
2023/08/19 02:25:07;;;;;;;28.80;24.90;;;19.50;99.90;;;;;;5008146;28;20067;-57
2023/08/19 02:27:32;;;;;;;30.23;26.92;;;19.50;99.90;;;;;;5007341;28;20536;-57
2023/08/19 02:29:59;;;;;;;31.27;25.83;;;19.50;99.90;;;;;;5008557;28;20030;-55
2023/08/19 02:32:25;;;;;;;32.92;27.48;;;19.50;99.90;;;;;;5000344;28;20066;-57
2023/08/19 02:34:51;;;;;;;34.40;29.63;;;19.50;99.90;;;;;;5008409;28;20022;-56
2023/08/19 02:37:16;;;;;;;30.05;25.50;;;19.50;99.90;;;;;;5008252;28;20029;-57
2023/08/19 02:39:42;;;;;;;40.70;29.98;;;19.50;99.90;;;;;;5008605;28;20613;-57
2023/08/19 02:42:07;;;;;;;33.75;27.25;;;19.50;99.90;;;;;;5008228;28;20120;-57
2023/08/19 02:44:35;;;;;;;31.77;26.98;;;19.50;99.90;;;;;;5008276;28;20018;-57
2023/08/19 02:47:00;;;;;;;36.72;28.38;;;19.40;99.90;;;;;;5007981;28;20474;-57
2023/08/19 02:49:26;;;;;;;28.35;25.27;;;19.40;99.90;;;;;;5008627;28;20053;-55
2023/08/19 02:51:52;;;;;;;27.50;24.38;;;19.40;99.90;;;;;;5008620;28;20042;-56
2023/08/19 02:54:17;;;;;;;32.90;26.58;;;19.30;99.90;;;;;;5008132;28;20105;-55
2023/08/19 02:56:43;;;;;;;32.85;28.25;;;19.30;99.90;;;;;;5008165;28;20509;-55
2023/08/19 02:59:08;;;;;;;31.02;26.25;;;19.30;99.90;;;;;;5008050;28;20158;-56
2023/08/19 03:01:34;;;;;;;33.90;29.35;;;19.30;99.90;;;;;;5008295;28;20015;-55
2023/08/19 03:04:00;;;;;;;37.70;30.98;;;19.30;99.90;;;;;;5007730;28;20018;-57
2023/08/19 03:06:25;;;;;;;32.00;26.42;;;19.30;99.90;;;;;;5007822;28;20014;-57
2023/08/19 03:08:51;;;;;;;33.05;25.95;;;19.30;99.90;;;;;;5007947;28;20490;-56
2023/08/19 03:11:16;;;;;;;29.05;25.90;;;19.20;99.90;;;;;;5008066;28;20040;-56
2023/08/19 03:13:42;;;;;;;31.20;25.95;;;19.20;99.90;;;;;;5007937;28;20034;-56
2023/08/19 03:16:07;;;;;;;43.72;29.65;;;19.20;99.90;;;;;;5007491;28;20038;-56
2023/08/19 03:18:33;;;;;;;33.05;27.38;;;19.20;99.90;;;;;;5006826;28;20065;-56
2023/08/19 03:20:59;;;;;;;35.08;30.45;;;19.20;99.90;;;;;;5008303;28;20393;-56
2023/08/19 03:23:26;;;;;;;43.85;32.72;;;19.20;99.90;;;;;;5008353;28;20022;-56
2023/08/19 03:25:52;;;;;;;44.13;36.80;;;19.20;99.90;;;;;;5008012;28;20071;-56
2023/08/19 03:28:17;;;;;;;45.88;35.80;;;19.30;99.90;;;;;;5007916;28;20532;-56
2023/08/19 03:30:43;;;;;;;42.85;33.85;;;19.30;99.90;;;;;;5007761;28;20022;-56
2023/08/19 03:33:08;;;;;;;38.08;31.00;;;19.30;99.90;;;;;;5007594;28;20049;-56
2023/08/19 03:35:34;;;;;;;38.15;32.53;;;19.20;99.90;;;;;;5007246;28;20052;-56
2023/08/19 03:38:02;;;;;;;47.60;35.22;;;19.30;99.90;;;;;;5006361;28;20033;-56
2023/08/19 03:40:27;;;;;;;37.28;30.60;;;19.20;99.90;;;;;;5007802;28;20298;-56
2023/08/19 03:42:53;;;;;;;48.13;37.05;;;19.20;99.90;;;;;;5007749;28;20494;-56
2023/08/19 03:45:18;;;;;;;36.75;30.95;;;19.20;99.90;;;;;;5006878;28;20105;-56
2023/08/19 03:47:45;;;;;;;46.08;34.78;;;19.20;99.90;;;;;;5007365;28;20445;-56
2023/08/19 03:50:10;;;;;;;36.92;31.38;;;19.20;99.90;;;;;;5007373;28;20038;-56
2023/08/19 03:52:36;;;;;;;45.13;36.13;;;19.20;99.90;;;;;;5007373;28;20053;-56
2023/08/19 03:55:02;;;;;;;40.08;32.47;;;19.10;99.90;;;;;;5007074;28;20475;-57
2023/08/19 03:57:27;;;;;;;39.95;32.53;;;19.20;99.90;;;;;;5007710;28;20067;-56
2023/08/19 03:59:53;;;;;;;37.80;31.85;;;19.20;99.90;;;;;;5005772;28;20026;-56
2023/08/19 04:02:18;;;;;;;39.70;29.67;;;19.10;99.90;;;;;;5007307;28;20440;-56
2023/08/19 04:05:01;;;;;;;36.88;30.52;;;19.10;99.90;;;;;;5007204;28;20025;-56
2023/08/19 04:07:27;;;;;;;37.58;30.25;;;19.10;99.90;;;;;;5007071;28;20610;-56
2023/08/19 04:09:54;;;;;;;36.22;29.55;;;19.10;99.90;;;;;;5003202;28;20026;-55
2023/08/19 04:12:21;;;;;;;34.95;28.63;;;19.10;99.90;;;;;;5005854;28;20033;-56
2023/08/19 04:14:46;;;;;;;35.00;29.92;;;19.00;99.90;;;;;;5006698;28;20317;-55
2023/08/19 04:17:12;;;;;;;37.53;31.25;;;19.00;99.90;;;;;;5006741;28;20034;-56
2023/08/19 04:19:38;;;;;;;35.92;30.05;;;19.00;99.90;;;;;;5007055;28;20030;-56
2023/08/19 04:22:03;;;;;;;32.75;28.55;;;19.00;99.90;;;;;;5007209;28;20061;-55
2023/08/19 04:24:29;;;;;;;34.03;27.45;;;19.00;99.90;;;;;;5006853;28;20046;-55
2023/08/19 04:26:54;;;;;;;36.63;30.95;;;19.00;99.90;;;;;;5006982;28;20038;-55
2023/08/19 04:29:20;;;;;;;46.33;33.55;;;19.10;99.90;;;;;;5006757;28;20060;-55
2023/08/19 04:31:46;;;;;;;39.35;31.15;;;19.10;99.90;;;;;;5007137;28;20033;-56
2023/08/19 04:34:11;;;;;;;35.25;28.75;;;19.10;99.90;;;;;;5005720;28;20026;-55
2023/08/19 04:36:37;;;;;;;40.03;33.30;;;19.00;99.90;;;;;;5007038;28;20034;-55
2023/08/19 04:39:05;;;;;;;42.30;31.33;;;19.10;99.90;;;;;;5007363;28;20078;-55
2023/08/19 04:41:30;;;;;;;36.10;30.67;;;19.00;99.90;;;;;;5003541;28;20029;-55
2023/08/19 04:43:57;;;;;;;34.33;29.48;;;19.10;99.90;;;;;;5002099;28;20026;-54
2023/08/19 04:46:23;;;;;;;38.30;30.55;;;19.10;99.90;;;;;;5006807;28;20010;-55
2023/08/19 04:48:48;;;;;;;32.55;27.63;;;19.00;99.90;;;;;;5007052;28;20034;-55
2023/08/19 04:51:14;;;;;;;35.13;31.00;;;19.00;99.90;;;;;;5006980;28;20030;-56
2023/08/19 04:53:39;;;;;;;44.00;33.20;;;19.00;99.90;;;;;;5006757;28;20221;-56
2023/08/19 04:56:06;;;;;;;38.53;31.90;;;19.00;99.90;;;;;;5006347;28;20398;-56
2023/08/19 04:58:32;;;;;;;35.97;30.20;;;19.10;99.90;;;;;;5006489;28;20030;-56
2023/08/19 05:00:57;;;;;;;34.85;28.63;;;19.10;99.90;;;;;;5005585;28;20083;-56
2023/08/19 05:03:23;;;;;;;36.40;29.85;;;19.10;99.90;;;;;;5006294;28;20510;-57
2023/08/19 05:05:49;;;;;;;35.28;29.65;;;19.10;99.90;;;;;;5005961;28;20061;-57
2023/08/19 05:08:15;;;;;;;36.78;30.73;;;19.10;99.90;;;;;;5006197;28;20018;-57
2023/08/19 05:10:40;;;;;;;34.10;27.65;;;19.20;99.90;;;;;;5006351;28;20223;-56
2023/08/19 05:13:06;;;;;;;37.80;30.92;;;19.20;99.90;;;;;;5006137;28;20026;-58
2023/08/19 05:15:31;;;;;;;33.13;28.50;;;19.20;99.90;;;;;;5005759;28;20064;-58
2023/08/19 05:17:57;;;;;;;33.45;26.83;;;19.20;99.90;;;;;;5006160;28;20038;-55
2023/08/19 05:20:23;;;;;;;30.17;26.15;;;19.20;99.90;;;;;;5006181;28;20067;-55
2023/08/19 05:22:48;;;;;;;31.95;28.40;;;19.30;99.90;;;;;;5006266;28;20032;-56
2023/08/19 05:25:14;;;;;;;34.85;28.05;;;19.30;99.90;;;;;;5005946;28;20383;-56
2023/08/19 05:27:39;;;;;;;32.38;27.55;;;19.30;99.90;;;;;;5006249;28;20034;-56
2023/08/19 05:30:07;;;;;;;38.00;31.15;;;19.30;99.90;;;;;;5006237;28;20064;-56
2023/08/19 05:32:33;;;;;;;38.67;32.13;;;19.40;99.90;;;;;;5006023;28;20014;-58
2023/08/19 05:34:59;;;;;;;32.90;27.30;;;19.50;99.90;;;;;;5006042;28;20383;-56
2023/08/19 05:37:24;;;;;;;34.05;28.35;;;19.50;99.90;;;;;;5005913;28;20022;-56
2023/08/19 05:39:50;;;;;;;34.33;28.70;;;19.50;99.90;;;;;;5006818;28;20030;-56
2023/08/19 05:42:15;;;;;;;34.35;28.25;;;19.50;99.90;;;;;;5007717;28;20026;-56
2023/08/19 05:44:41;;;;;;;32.72;29.23;;;19.60;99.90;;;;;;5009481;28;20030;-56
2023/08/19 05:47:06;;;;;;;33.50;27.27;;;19.60;99.90;;;;;;5009028;28;20240;-56
2023/08/19 05:49:32;;;;;;;39.83;31.33;;;19.60;99.90;;;;;;5009119;28;20463;-56
2023/08/19 05:51:58;;;;;;;36.65;28.90;;;19.60;99.90;;;;;;5009441;28;20102;-56
2023/08/19 05:54:23;;;;;;;30.38;26.35;;;19.70;99.90;;;;;;5009167;28;20162;-56
2023/08/19 05:56:49;;;;;;;31.67;28.27;;;19.70;99.90;;;;;;5007945;28;20026;-56
2023/08/19 05:59:14;;;;;;;32.55;27.58;;;19.70;99.90;;;;;;5009517;28;20029;-56
2023/08/19 06:01:40;;;;;;;34.47;28.08;;;19.80;99.90;;;;;;5009429;28;20178;-56
2023/08/19 06:04:05;;;;;;;33.40;26.52;;;19.80;99.90;;;;;;5007592;28;20558;-56
2023/08/19 06:06:31;;;;;;;30.13;26.83;;;19.90;99.90;;;;;;5007573;28;20022;-56
2023/08/19 06:08:56;;;;;;;32.28;25.77;;;19.90;99.90;;;;;;5008895;28;20026;-56
2023/08/19 06:11:22;;;;;;;30.77;25.25;;;20.00;99.90;;;;;;5008702;28;20040;-56
2023/08/19 06:13:48;;;;;;;27.52;24.60;;;20.00;99.90;;;;;;5009301;28;20042;-54
2023/08/19 06:16:13;;;;;;;27.48;24.55;;;20.10;99.90;;;;;;5007157;28;20046;-56
2023/08/19 06:18:39;;;;;;;29.40;25.80;;;20.20;99.90;;;;;;5008780;28;20136;-56
2023/08/19 06:21:05;;;;;;;28.25;25.20;;;20.20;99.90;;;;;;5008800;28;20022;-56
2023/08/19 06:23:31;;;;;;;27.73;24.73;;;20.30;99.90;;;;;;5008470;28;20087;-56
2023/08/19 06:25:56;;;;;;;30.35;27.00;;;20.40;99.90;;;;;;5008199;28;20053;-56
2023/08/19 06:28:22;;;;;;;38.20;29.20;;;20.50;99.90;;;;;;5008710;28;20431;-56
2023/08/19 06:30:48;;;;;;;29.23;26.10;;;20.60;99.90;;;;;;5008556;28;20034;-56
2023/08/19 06:33:14;;;;;;;30.17;25.55;;;20.70;99.90;;;;;;5008210;28;20026;-56
2023/08/19 06:35:41;;;;;;;35.95;26.90;;;20.80;99.90;;;;;;5008106;28;20434;-56
2023/08/19 06:38:19;;;;;;;41.60;30.67;;;20.80;99.90;;;;;;5008566;28;20059;-56
2023/08/19 06:41:09;;;;;;;31.02;27.20;;;21.00;99.90;;;;;;5008138;28;20030;-56
2023/08/19 06:43:37;;;;;;;30.40;26.17;;;21.10;99.90;;;;;;5008473;28;20022;-56
2023/08/19 06:46:05;;;;;;;31.83;26.55;;;21.20;99.90;;;;;;4999986;28;20033;-56
2023/08/19 06:48:32;;;;;;;29.92;24.70;;;21.30;99.90;;;;;;5007115;28;20037;-56
2023/08/19 06:51:00;;;;;;;27.73;24.10;;;21.40;99.90;;;;;;5008539;28;20071;-56
2023/08/19 06:53:26;;;;;;;26.90;23.75;;;21.50;99.90;;;;;;5008267;28;20396;-56
2023/08/19 06:56:10;;;;;;;29.88;23.60;;;21.50;99.90;;;;;;5008024;28;20037;-56
2023/08/19 06:58:43;;;;;;;27.02;24.02;;;21.70;99.90;;;;;;5008430;28;20039;-56
2023/08/19 07:01:26;;;;;;;27.58;24.30;;;21.80;99.90;;;;;;5008699;28;20399;-56
2023/08/19 07:03:52;;;;;;;25.85;23.05;;;21.90;99.90;;;;;;5001571;28;20399;-55
2023/08/19 07:06:20;;;;;;;24.80;22.20;;;22.10;99.90;;;;;;5006539;28;20022;-56
2023/08/19 07:08:46;;;;;;;26.50;22.55;;;22.20;99.90;;;;;;5007972;28;20026;-56
2023/08/19 07:11:12;;;;;;;27.25;24.08;;;22.30;99.90;;;;;;5006713;28;20030;-54
2023/08/19 07:13:38;;;;;;;23.80;21.23;;;22.40;99.90;;;;;;5007666;28;20030;-56
2023/08/19 07:16:05;;;;;;;30.40;22.73;;;22.60;99.90;;;;;;5008045;28;20276;-56
2023/08/19 07:18:38;;;;;;;23.08;20.15;;;22.70;99.90;;;;;;5007687;28;20033;-56
2023/08/19 07:21:05;;;;;;;22.20;19.85;;;22.90;99.90;;;;;;5006757;28;20022;-56
2023/08/19 07:23:32;;;;;;;22.33;20.02;;;23.00;99.90;;;;;;5007658;28;20486;-56
2023/08/19 07:25:58;;;;;;;23.15;20.27;;;23.20;99.90;;;;;;5007483;28;20075;-56
2023/08/19 07:28:24;;;;;;;21.88;17.73;;;23.20;99.90;;;;;;5007509;28;20038;-56
2023/08/19 07:30:51;;;;;;;20.42;18.23;;;23.30;99.90;;;;;;5007580;28;20525;-56
2023/08/19 07:33:16;;;;;;;23.33;17.77;;;23.40;99.90;;;;;;5007211;28;20032;-56
2023/08/19 07:35:43;;;;;;;21.90;18.95;;;23.40;99.90;;;;;;4999698;28;20268;-56
2023/08/19 07:38:09;;;;;;;19.65;17.38;;;23.50;99.90;;;;;;5007221;28;20026;-56
2023/08/19 07:40:34;;;;;;;21.00;18.80;;;23.70;99.90;;;;;;5005974;28;20026;-56
2023/08/19 07:43:00;;;;;;;20.98;18.20;;;23.80;99.90;;;;;;5006996;28;20028;-55
2023/08/19 07:45:25;;;;;;;19.20;17.08;;;23.90;99.90;;;;;;5006743;28;20060;-55
2023/08/19 07:47:51;;;;;;;19.23;17.15;;;24.00;99.90;;;;;;5007461;28;20033;-55
2023/08/19 07:50:16;;;;;;;18.23;16.42;;;24.10;99.90;;;;;;5007139;28;20030;-55
2023/08/19 07:52:42;;;;;;;19.27;15.95;;;24.30;99.90;;;;;;5007514;28;20033;-54
2023/08/19 07:55:08;;;;;;;17.70;15.80;;;24.50;99.90;;;;;;5005521;28;20022;-56
2023/08/19 07:57:33;;;;;;;18.48;16.50;;;24.70;99.90;;;;;;5007012;28;20038;-55
2023/08/19 07:59:59;;;;;;;18.70;16.67;;;24.90;99.90;;;;;;5006994;28;20025;-55
2023/08/19 08:02:25;;;;;;;18.17;16.17;;;25.10;99.90;;;;;;5006944;28;20063;-55
2023/08/19 08:04:50;;;;;;;17.60;15.80;;;25.50;99.90;;;;;;5006418;28;20505;-55
2023/08/19 08:07:16;;;;;;;16.95;15.25;;;25.90;99.90;;;;;;5006801;28;20036;-55
2023/08/19 08:09:43;;;;;;;17.63;14.15;;;26.50;99.90;;;;;;5006948;28;20061;-55
2023/08/19 08:12:09;;;;;;;15.73;14.07;;;27.30;99.90;;;;;;5006798;28;20479;-55
2023/08/19 08:14:35;;;;;;;15.45;13.50;;;28.40;99.90;;;;;;5006569;28;20029;-56
2023/08/19 08:17:00;;;;;;;13.43;11.95;;;29.70;99.90;;;;;;5006597;28;20032;-56
2023/08/19 08:19:26;;;;;;;12.02;10.88;;;31.30;99.90;;;;;;5006702;28;20022;-56
2023/08/19 08:21:53;;;;;;;11.50;10.25;;;32.70;99.90;;;;;;5006802;28;20319;-58
2023/08/19 08:24:19;;;;;;;10.63;9.73;;;33.80;98.20;;;;;;5006366;28;20014;-56
2023/08/19 08:26:45;;;;;;;12.65;9.98;;;35.10;95.80;;;;;;5006591;28;20014;-56
2023/08/19 08:29:11;;;;;;;9.95;9.05;;;36.10;93.40;;;;;;5007011;28;20032;-56
2023/08/19 08:31:36;;;;;;;11.32;9.05;;;36.70;91.80;;;;;;5007011;28;20091;-56
2023/08/19 08:34:02;;;;;;;9.73;8.82;;;37.20;90.00;;;;;;5006718;28;20101;-56
2023/08/19 08:36:27;;;;;;;10.98;9.65;;;37.90;87.40;;;;;;4998617;28;20038;-56
2023/08/19 08:38:53;;;;;;;10.60;8.60;;;38.30;82.80;;;;;;5006653;28;20137;-56
2023/08/19 08:41:19;;;;;;;8.95;8.15;;;38.80;80.90;;;;;;5006953;28;20034;-56
2023/08/19 08:43:47;;;;;;;9.30;8.40;;;39.40;79.40;;;;;;5005292;28;20026;-57
2023/08/19 08:46:15;;;;;;;8.88;8.18;;;40.00;77.30;;;;;;5006350;28;20605;-55
2023/08/19 08:48:42;;;;;;;12.38;8.10;;;39.70;76.40;;;;;;5006713;28;20479;-56
2023/08/19 08:51:09;;;;;;;13.63;10.85;;;40.00;77.40;;;;;;5006846;28;20061;-56
2023/08/19 08:53:35;;;;;;;9.65;8.65;;;40.20;75.70;;;;;;5006340;28;20030;-55
2023/08/19 08:56:02;;;;;;;11.70;10.70;;;40.60;74.80;;;;;;5006064;28;20037;-56
2023/08/19 08:58:28;;;;;;;8.32;7.63;;;41.00;73.30;;;;;;5006199;28;20044;-56
2023/08/19 09:00:54;;;;;;;8.82;8.07;;;41.50;72.60;;;;;;5006576;28;20522;-56
2023/08/19 09:03:25;;;;;;;9.85;7.97;;;41.60;71.10;;;;;;5006317;28;20098;-56
2023/08/19 09:05:55;;;;;;;7.70;7.00;;;41.70;69.70;;;;;;5006008;28;20428;-56
2023/08/19 09:08:30;;;;;;;7.35;6.55;;;41.90;69.20;;;;;;5006052;28;20026;-57
2023/08/19 09:11:00;;;;;;;6.15;5.65;;;42.60;67.30;;;;;;5006306;28;20497;-56
2023/08/19 09:13:27;;;;;;;8.98;6.32;;;42.50;65.20;;;;;;5006006;28;20313;-57
2023/08/19 09:15:53;;;;;;;6.75;6.00;;;41.40;64.00;;;;;;5005372;28;20026;-56
2023/08/19 09:18:20;;;;;;;5.93;5.32;;;40.90;65.70;;;;;;5008813;28;20022;-57
2023/08/19 09:20:46;;;;;;;8.77;6.03;;;41.20;64.70;;;;;;5009323;28;20018;-56
2023/08/19 09:23:12;;;;;;;6.40;5.70;;;41.30;64.20;;;;;;5009630;28;20058;-56
2023/08/19 09:25:39;;;;;;;7.55;5.75;;;41.90;65.20;;;;;;5007601;28;20380;-56
2023/08/19 09:28:05;;;;;;;6.93;6.03;;;41.80;64.30;;;;;;5008161;28;20045;-57
2023/08/19 09:30:32;;;;;;;6.60;6.00;;;42.40;65.40;;;;;;5001293;28;20026;-55
2023/08/19 09:33:01;;;;;;;10.38;8.38;;;42.50;63.50;;;;;;5009579;28;20436;-55
2023/08/19 09:35:39;;;;;;;7.13;5.70;;;42.90;64.30;;;;;;5008935;28;20018;-56
2023/08/19 09:38:04;;;;;;;6.28;5.70;;;43.00;64.70;;;;;;5009634;28;20041;-56
2023/08/19 09:40:30;;;;;;;7.63;6.65;;;43.00;61.00;;;;;;5009447;28;20094;-55
2023/08/19 09:43:00;;;;;;;6.55;5.93;;;43.20;65.70;;;;;;5009363;28;20049;-56
2023/08/19 09:45:27;;;;;;;7.55;5.50;;;43.80;62.10;;;;;;5013219;28;20020;-58
2023/08/19 09:47:53;;;;;;;8.10;5.78;;;43.70;59.20;;;;;;5009345;28;20014;-56
2023/08/19 09:50:21;;;;;;;7.40;5.53;;;43.70;60.20;;;;;;5009448;28;20033;-56
2023/08/19 09:52:57;;;;;;;5.50;5.00;;;43.70;59.20;;;;;;5009441;28;20010;-56
2023/08/19 09:55:27;;;;;;;9.70;6.95;;;42.90;57.50;;;;;;5008901;28;20057;-57
2023/08/19 09:57:53;;;;;;;5.60;5.05;;;42.90;60.90;;;;;;5009115;28;20045;-57
2023/08/19 10:00:18;;;;;;;6.15;5.55;;;42.50;57.30;;;;;;5009183;28;20030;-57
2023/08/19 10:02:44;;;;;;;6.85;5.28;;;42.10;57.60;;;;;;5007859;28;20022;-57
2023/08/19 10:05:09;;;;;;;7.85;5.20;;;42.10;59.80;;;;;;5008528;28;20409;-57
2023/08/19 10:07:38;;;;;;;8.48;5.20;;;42.20;58.50;;;;;;5009001;28;20598;-57
2023/08/19 10:10:05;;;;;;;5.18;4.78;;;42.10;60.20;;;;;;5008894;28;20017;-57
2023/08/19 10:12:33;;;;;;;5.88;5.05;;;43.30;60.20;;;;;;5007354;28;20030;-57
2023/08/19 10:15:00;;;;;;;5.35;4.93;;;43.90;58.80;;;;;;5008459;28;20030;-57
2023/08/19 10:17:27;;;;;;;7.35;5.35;;;44.40;57.40;;;;;;5006486;28;20026;-57
2023/08/19 10:19:59;;;;;;;5.70;5.20;;;44.10;58.10;;;;;;5001295;28;20018;-57
2023/08/19 10:22:27;;;;;;;6.60;4.97;;;44.50;56.50;;;;;;5008483;28;20018;-56
2023/08/19 10:24:54;;;;;;;7.13;4.87;;;44.70;57.80;;;;;;5008409;28;20130;-57
2023/08/19 10:27:20;;;;;;;5.53;4.70;;;44.90;56.20;;;;;;5007876;28;20335;-57
2023/08/19 10:29:48;;;;;;;6.78;5.10;;;44.30;55.40;;;;;;5007415;28;20116;-57
2023/08/19 10:32:32;;;;;;;7.23;4.30;;;43.90;57.70;;;;;;5008762;28;20221;-57
2023/08/19 10:35:09;;;;;;;8.55;5.00;;;43.20;54.20;;;;;;5001788;28;20033;-57
2023/08/19 10:37:41;;;;;;;5.88;4.13;;;41.90;56.10;;;;;;5008887;28;20026;-56
2023/08/19 10:40:09;;;;;;;6.47;4.82;;;41.10;59.00;;;;;;5008272;28;20025;-56
2023/08/19 10:42:35;;;;;;;5.15;4.63;;;40.80;57.70;;;;;;5008179;28;20018;-56
2023/08/19 10:45:01;;;;;;;5.22;4.72;;;41.30;59.00;;;;;;5008370;28;20029;-56
2023/08/19 10:47:26;;;;;;;8.35;4.80;;;41.30;58.00;;;;;;5000205;28;20014;-56
2023/08/19 10:50:01;;;;;;;7.03;4.45;;;41.50;57.00;;;;;;5008365;28;20025;-56
2023/08/19 10:52:26;;;;;;;5.10;4.10;;;41.00;57.60;;;;;;5008034;28;20137;-57
2023/08/19 10:54:52;;;;;;;5.28;4.28;;;41.50;55.30;;;;;;5008288;28;20018;-57
2023/08/19 10:57:22;;;;;;;4.57;4.18;;;41.00;57.60;;;;;;5007887;28;20045;-57
2023/08/19 10:59:58;;;;;;;5.78;4.40;;;42.10;59.70;;;;;;5007924;28;20017;-57
2023/08/19 11:02:25;;;;;;;5.07;4.70;;;42.30;59.60;;;;;;5007995;28;20297;-57
2023/08/19 11:04:51;;;;;;;5.10;4.70;;;40.70;57.10;;;;;;5007783;28;20018;-57
2023/08/19 11:07:18;;;;;;;5.18;4.68;;;41.10;58.80;;;;;;5007796;28;20475;-57
2023/08/19 11:09:47;;;;;;;5.85;4.30;;;41.80;59.90;;;;;;5006530;28;20030;-57
2023/08/19 11:12:17;;;;;;;4.82;3.90;;;42.10;55.60;;;;;;5007869;28;20105;-57
2023/08/19 11:14:49;;;;;;;4.70;4.20;;;42.30;57.70;;;;;;5007928;28;20037;-57
2023/08/19 11:17:15;;;;;;;4.22;3.80;;;42.30;56.40;;;;;;5007644;28;20030;-57
2023/08/19 11:19:41;;;;;;;6.03;3.60;;;42.50;55.50;;;;;;5007837;28;20094;-57
2023/08/19 11:22:14;;;;;;;4.80;3.50;;;42.00;54.40;;;;;;5006767;28;20421;-57
2023/08/19 11:24:40;;;;;;;5.80;3.58;;;41.70;52.50;;;;;;5007663;28;20079;-57
2023/08/19 11:27:07;;;;;;;5.80;3.92;;;40.90;53.60;;;;;;5007639;28;20397;-57
2023/08/19 11:29:32;;;;;;;3.67;3.38;;;40.50;55.20;;;;;;5007531;28;20018;-57
2023/08/19 11:32:00;;;;;;;4.32;3.85;;;41.50;58.20;;;;;;5007603;28;20534;-57
2023/08/19 11:34:29;;;;;;;3.60;3.30;;;42.30;58.10;;;;;;5007281;28;20483;-56
2023/08/19 11:36:56;;;;;;;3.63;3.13;;;42.90;57.60;;;;;;4999856;28;20097;-57
2023/08/19 11:39:21;;;;;;;5.30;3.40;;;42.10;53.50;;;;;;5006547;28;20023;-57
2023/08/19 11:41:47;;;;;;;5.60;3.22;;;42.70;51.20;;;;;;5007585;28;20029;-57
2023/08/19 11:44:13;;;;;;;4.88;3.13;;;42.80;51.70;;;;;;5007398;28;20037;-57
2023/08/19 11:46:39;;;;;;;4.70;2.80;;;42.80;52.60;;;;;;5007164;28;20536;-57
2023/08/19 11:49:09;;;;;;;6.47;3.20;;;43.40;52.90;;;;;;5007503;28;20026;-57
2023/08/19 11:51:39;;;;;;;4.20;3.47;;;42.40;51.00;;;;;;5007552;28;20037;-56
2023/08/19 11:54:09;;;;;;;5.15;3.30;;;41.80;50.80;;;;;;5005864;28;20030;-55
2023/08/19 11:56:51;;;;;;;4.68;3.63;;;41.70;54.70;;;;;;5006996;28;20255;-55
2023/08/19 11:59:18;;;;;;;3.63;3.33;;;41.50;52.40;;;;;;5005948;28;20030;-55
2023/08/19 12:01:47;;;;;;;6.75;3.17;;;41.70;54.10;;;;;;5007132;28;20022;-56
2023/08/19 12:04:17;;;;;;;4.15;3.75;;;42.10;55.00;;;;;;5007082;28;20022;-57
2023/08/19 12:06:44;;;;;;;4.88;3.60;;;41.90;53.00;;;;;;5005789;28;20022;-55
2023/08/19 12:09:10;;;;;;;5.03;3.40;;;41.50;53.60;;;;;;5007212;28;20030;-56
2023/08/19 12:11:37;;;;;;;4.20;3.28;;;41.20;55.00;;;;;;5006995;28;20109;-56
2023/08/19 12:14:03;;;;;;;4.13;3.65;;;41.10;54.80;;;;;;5006888;28;20498;-56
2023/08/19 12:16:29;;;;;;;6.75;4.10;;;41.10;56.40;;;;;;5006827;28;20505;-55
2023/08/19 12:18:57;;;;;;;4.53;3.92;;;40.20;54.80;;;;;;5006970;28;20022;-56
2023/08/19 12:21:23;;;;;;;8.77;4.78;;;39.60;54.70;;;;;;5006756;28;20463;-56
2023/08/19 12:23:49;;;;;;;4.65;4.25;;;39.00;56.10;;;;;;5006679;28;20075;-56
2023/08/19 12:26:14;;;;;;;5.10;4.13;;;39.00;58.50;;;;;;5004975;28;20018;-56
2023/08/19 12:28:40;;;;;;;5.32;4.25;;;39.10;59.90;;;;;;5006713;28;20037;-57
2023/08/19 12:31:06;;;;;;;9.15;4.72;;;39.00;59.10;;;;;;5006988;28;20097;-57
2023/08/19 12:33:31;;;;;;;10.00;4.70;;;38.30;59.00;;;;;;5006641;28;20032;-57